Time;durP1;ratioP1;P1;durP2;ratioP2;P2;SDS_P1;SDS_P2;PMS_P1;PMS_P2;Temp;Humidity;BMP_temperature;BMP_pressure;BME280_temperature;BME280_humidity;BME280_pressure;Samples;Min_cycle;Max_cycle;Signal;HPM_P1;HPM_P2
2021/11/22 00:01:26;;;;;;;15.00;10.47;;;4.80;96.30;;;;;;4996407;28;20898;-82
2021/11/22 00:03:52;;;;;;;21.73;9.90;;;4.80;96.30;;;;;;4996694;28;20199;-80
2021/11/22 00:06:17;;;;;;;13.70;9.40;;;4.80;96.30;;;;;;5014347;28;20411;-80
2021/11/22 00:08:43;;;;;;;18.43;9.17;;;4.80;96.30;;;;;;5014262;28;20633;-78
2021/11/22 00:11:09;;;;;;;16.80;8.33;;;4.80;96.30;;;;;;4996060;28;20659;-79
2021/11/22 00:13:34;;;;;;;11.73;8.17;;;4.80;96.30;;;;;;5013771;28;20216;-79
2021/11/22 00:16:00;;;;;;;12.80;7.27;;;4.80;96.30;;;;;;4996485;28;20180;-80
2021/11/22 00:18:25;;;;;;;15.13;8.20;;;4.70;96.30;;;;;;5013712;28;20181;-80
2021/11/22 00:20:51;;;;;;;11.60;8.40;;;4.80;96.30;;;;;;5012679;28;20243;-81
2021/11/22 00:23:17;;;;;;;16.07;8.80;;;4.80;96.30;;;;;;4995671;28;20184;-80
2021/11/22 00:25:42;;;;;;;12.47;8.00;;;4.80;96.30;;;;;;4996415;28;20433;-81
2021/11/22 00:28:08;;;;;;;24.30;8.70;;;4.80;96.30;;;;;;4989891;28;20666;-82
2021/11/22 00:30:34;;;;;;;17.03;9.37;;;4.80;96.30;;;;;;4994058;28;20189;-80
2021/11/22 00:33:01;;;;;;;11.00;8.30;;;4.80;96.30;;;;;;4976338;28;20209;-83
2021/11/22 00:35:33;;;;;;;19.67;9.60;;;4.80;96.30;;;;;;4976920;28;20269;-81
2021/11/22 00:38:02;;;;;;;20.00;8.87;;;4.80;96.30;;;;;;4976717;28;20412;-81
2021/11/22 00:40:27;;;;;;;17.43;7.07;;;4.80;96.30;;;;;;4976832;28;20710;-80
2021/11/22 00:42:53;;;;;;;28.80;9.00;;;4.80;96.30;;;;;;4993347;28;20468;-81
2021/11/22 00:45:19;;;;;;;18.80;8.97;;;4.80;96.30;;;;;;4976705;28;20232;-82
2021/11/22 00:47:45;;;;;;;15.30;8.30;;;4.80;96.30;;;;;;4994214;28;20173;-81
2021/11/22 00:50:11;;;;;;;14.67;8.70;;;4.80;96.30;;;;;;4994080;28;20412;-81
2021/11/22 00:52:37;;;;;;;14.30;8.23;;;4.80;96.30;;;;;;4975465;28;20460;-82
2021/11/22 00:55:04;;;;;;;10.73;7.93;;;4.80;96.30;;;;;;4975923;28;20448;-81
2021/11/22 00:57:30;;;;;;;15.70;8.80;;;4.80;96.30;;;;;;4993898;28;20197;-80
2021/11/22 00:59:55;;;;;;;14.93;8.53;;;4.70;96.30;;;;;;4976420;28;20452;-82
2021/11/22 05:00:35;;;;;;;15.70;9.93;;;4.00;96.30;;;;;;6054666;23;20477;-85
2021/11/22 05:03:01;;;;;;;17.67;10.50;;;4.00;96.30;;;;;;4936150;29;20439;-84
2021/11/22 05:05:27;;;;;;;41.93;10.13;;;4.00;96.30;;;;;;4937770;29;20422;-84
2021/11/22 05:07:52;;;;;;;134.40;11.87;;;4.10;96.30;;;;;;4937734;29;20422;-83
2021/11/22 05:10:19;;;;;;;229.80;13.10;;;4.10;96.30;;;;;;4937795;29;20182;-84
2021/11/22 05:12:45;;;;;;;436.13;15.93;;;4.10;96.30;;;;;;4936921;29;20253;-83
2021/11/22 05:15:11;;;;;;;179.23;9.60;;;4.10;96.30;;;;;;4938129;29;20427;-84
2021/11/22 05:17:36;;;;;;;162.50;10.67;;;4.00;96.30;;;;;;4937610;29;20584;-84
2021/11/22 05:20:03;;;;;;;72.70;7.80;;;3.90;96.30;;;;;;4953747;29;20179;-84
2021/11/22 05:30:15;;;;;;;7.70;5.50;;;3.80;96.30;;;;;;5746442;23;20486;-80
2021/11/22 05:32:41;;;;;;;9.00;5.20;;;3.70;96.30;;;;;;4993433;28;20458;-80
2021/11/22 05:35:07;;;;;;;7.83;5.20;;;3.70;96.30;;;;;;4976747;28;20421;-82
2021/11/22 05:37:35;;;;;;;9.00;5.67;;;3.70;96.30;;;;;;4985892;28;20260;-83
2021/11/22 05:40:01;;;;;;;7.73;5.53;;;3.70;96.30;;;;;;4966234;28;20713;-83
2021/11/22 05:42:27;;;;;;;7.90;5.83;;;3.70;96.30;;;;;;4958136;28;20452;-83
2021/11/22 05:44:52;;;;;;;9.77;6.30;;;3.70;96.30;;;;;;4975493;28;20421;-84
2021/11/22 05:47:18;;;;;;;12.00;7.30;;;3.70;96.30;;;;;;4993043;28;20174;-83
2021/11/22 05:49:44;;;;;;;7.93;5.87;;;3.70;96.30;;;;;;4975687;28;20205;-83
2021/11/22 05:52:12;;;;;;;8.93;6.87;;;3.70;96.30;;;;;;4975039;28;20637;-83
2021/11/22 05:54:49;;;;;;;9.97;7.57;;;3.60;96.30;;;;;;4992986;28;20252;-84
2021/11/22 05:57:15;;;;;;;13.17;7.33;;;3.60;96.30;;;;;;4975504;28;20503;-84
2021/11/22 05:59:40;;;;;;;13.23;9.17;;;3.60;96.30;;;;;;4975688;28;20505;-84
2021/11/22 06:02:06;;;;;;;9.37;7.70;;;3.60;96.30;;;;;;4974964;28;20201;-85
2021/11/22 06:04:31;;;;;;;12.50;7.53;;;3.60;96.30;;;;;;4975437;28;20184;-84
2021/11/22 06:06:57;;;;;;;16.20;7.50;;;3.60;96.30;;;;;;4992926;28;20173;-83
2021/11/22 06:09:22;;;;;;;15.00;9.17;;;3.50;96.30;;;;;;4976464;28;20192;-80
2021/11/22 06:11:48;;;;;;;20.80;8.67;;;3.50;96.30;;;;;;4967429;28;20233;-82
2021/11/22 06:14:14;;;;;;;22.07;8.00;;;3.40;96.30;;;;;;4991695;28;20209;-81
2021/11/22 06:16:39;;;;;;;19.40;8.83;;;3.40;96.30;;;;;;4993694;28;20184;-80
2021/11/22 06:19:05;;;;;;;10.60;7.30;;;3.40;96.30;;;;;;4993169;28;20177;-81
2021/11/22 06:21:31;;;;;;;18.80;8.30;;;3.30;96.30;;;;;;4971324;28;20198;-81
2021/11/22 06:23:58;;;;;;;34.87;7.43;;;3.30;96.30;;;;;;4971417;28;20340;-80
2021/11/22 06:26:24;;;;;;;44.67;8.13;;;3.30;96.30;;;;;;4994392;28;20813;-80
2021/11/22 06:28:49;;;;;;;94.67;8.90;;;3.20;96.30;;;;;;5006350;28;20513;-80
2021/11/22 06:31:15;;;;;;;179.97;11.80;;;3.20;96.30;;;;;;5013626;28;20212;-81
2021/11/22 06:33:40;;;;;;;133.50;8.70;;;3.20;96.30;;;;;;4995892;28;20224;-81
2021/11/22 06:36:06;;;;;;;281.87;12.60;;;3.20;96.30;;;;;;5014285;28;20540;-81
2021/11/22 06:38:33;;;;;;;128.77;9.00;;;3.20;96.30;;;;;;5014506;28;20173;-81
2021/11/22 06:40:59;;;;;;;11.83;6.37;;;3.20;96.30;;;;;;4994938;28;20201;-81
2021/11/22 06:43:24;;;;;;;6.60;3.97;;;3.20;96.30;;;;;;5005555;28;20982;-81
2021/11/22 06:45:50;;;;;;;5.47;3.80;;;3.20;96.30;;;;;;4986067;28;20650;-81
2021/11/22 06:48:16;;;;;;;5.60;4.90;;;3.20;96.30;;;;;;4976392;28;20277;-81
2021/11/22 06:50:41;;;;;;;5.87;4.57;;;3.20;96.30;;;;;;4993931;28;20227;-81
2021/11/22 06:53:06;;;;;;;5.10;3.87;;;3.10;96.30;;;;;;4987078;28;20228;-81
2021/11/22 06:55:32;;;;;;;6.83;3.30;;;3.10;96.30;;;;;;4980124;28;20200;-80
2021/11/22 06:57:58;;;;;;;5.77;4.40;;;3.10;96.30;;;;;;4979020;28;20185;-79
2021/11/22 07:00:24;;;;;;;9.00;4.60;;;3.10;96.30;;;;;;4978692;28;20181;-79
2021/11/22 07:02:53;;;;;;;3.63;3.10;;;3.10;96.30;;;;;;4977856;28;20177;-79
2021/11/22 07:05:20;;;;;;;10.83;5.20;;;3.20;96.30;;;;;;4995987;28;20419;-79
2021/11/22 07:07:46;;;;;;;20.47;6.40;;;3.20;96.30;;;;;;4995868;28;20420;-80
2021/11/22 07:10:12;;;;;;;7.90;5.77;;;3.20;96.30;;;;;;4978503;28;20479;-79
2021/11/22 07:12:37;;;;;;;10.67;6.57;;;3.20;96.30;;;;;;4977751;28;20784;-79
2021/11/22 07:15:04;;;;;;;12.03;6.73;;;3.20;96.30;;;;;;4995826;28;20444;-80
2021/11/22 07:17:30;;;;;;;10.23;6.73;;;3.20;96.30;;;;;;4978259;28;20177;-80
2021/11/22 07:19:56;;;;;;;9.47;6.37;;;3.20;96.30;;;;;;4995780;28;20955;-79
2021/11/22 07:22:21;;;;;;;9.80;8.00;;;3.20;96.30;;;;;;4995074;28;20193;-79
2021/11/22 07:24:47;;;;;;;13.30;7.00;;;3.20;96.30;;;;;;4978276;28;20232;-80
2021/11/22 07:27:13;;;;;;;15.27;7.00;;;3.20;96.30;;;;;;4978167;28;20595;-79
2021/11/22 07:29:43;;;;;;;15.90;6.90;;;3.20;96.30;;;;;;4977870;28;20189;-80
2021/11/22 07:32:09;;;;;;;9.00;5.40;;;3.20;96.30;;;;;;4977008;28;20455;-79
2021/11/22 07:34:35;;;;;;;14.07;7.13;;;3.20;96.30;;;;;;4995735;28;20412;-81
2021/11/22 07:37:01;;;;;;;5.90;3.90;;;3.20;96.30;;;;;;4978253;28;20412;-79
2021/11/22 07:39:27;;;;;;;7.27;3.60;;;3.20;96.30;;;;;;4978721;28;20178;-79
2021/11/22 07:41:56;;;;;;;6.07;4.10;;;3.20;96.30;;;;;;4994929;28;20245;-79
2021/11/22 07:44:23;;;;;;;6.70;4.73;;;3.10;96.30;;;;;;4977790;28;20178;-80
2021/11/22 07:46:48;;;;;;;6.77;4.33;;;3.10;96.30;;;;;;4977900;28;20752;-81
2021/11/22 07:49:15;;;;;;;12.07;4.30;;;3.20;96.30;;;;;;4995142;28;20416;-81
2021/11/22 07:51:41;;;;;;;8.00;4.10;;;3.20;96.30;;;;;;4977403;28;20201;-79
2021/11/22 07:54:07;;;;;;;5.73;3.77;;;3.20;96.30;;;;;;4995315;28;20456;-79
2021/11/22 07:56:32;;;;;;;5.43;4.27;;;3.20;96.30;;;;;;4977576;28;20916;-79
2021/11/22 07:58:58;;;;;;;3.33;2.17;;;3.20;96.30;;;;;;4995104;28;20170;-80
2021/11/22 08:01:24;;;;;;;2.10;1.80;;;3.20;96.30;;;;;;4994441;28;20216;-78
2021/11/22 08:03:50;;;;;;;2.63;1.80;;;3.20;96.30;;;;;;4975985;28;20179;-79
2021/11/22 08:06:16;;;;;;;1.73;1.40;;;3.20;96.30;;;;;;4977266;28;21015;-78
2021/11/22 08:08:42;;;;;;;1.80;1.30;;;3.20;96.30;;;;;;4977399;28;20189;-78
2021/11/22 08:13:40;;;;;;;1.27;1.17;;;3.20;96.30;;;;;;4995077;28;20195;-78
2021/11/22 08:16:07;;;;;;;2.67;1.23;;;3.20;96.30;;;;;;4977519;28;20825;-79
2021/11/22 08:18:34;;;;;;;1.47;1.33;;;3.20;96.30;;;;;;4994778;28;20448;-79
2021/11/22 08:21:02;;;;;;;2.17;1.57;;;3.20;96.30;;;;;;4976516;28;20447;-78
2021/11/22 08:23:28;;;;;;;1.93;1.50;;;3.30;96.30;;;;;;4977173;28;20889;-79
2021/11/22 08:25:54;;;;;;;1.63;1.30;;;3.30;96.30;;;;;;4977069;28;20424;-79
2021/11/22 08:28:20;;;;;;;1.77;1.17;;;3.30;96.30;;;;;;4994621;28;20169;-79
2021/11/22 08:30:46;;;;;;;2.17;1.77;;;3.30;96.30;;;;;;4976850;28;20460;-79
2021/11/22 08:33:14;;;;;;;3.07;2.03;;;3.30;96.30;;;;;;4976403;28;20300;-79
2021/11/22 08:35:41;;;;;;;2.43;2.07;;;3.30;96.30;;;;;;4994364;28;20220;-78
2021/11/22 08:38:07;;;;;;;18.70;3.17;;;3.20;96.30;;;;;;4976611;28;20764;-78
2021/11/22 08:40:34;;;;;;;5.77;5.17;;;3.10;96.30;;;;;;4976833;28;20484;-78
2021/11/22 08:43:00;;;;;;;7.00;5.37;;;3.10;96.30;;;;;;4976343;28;20456;-78
2021/11/22 08:45:26;;;;;;;12.87;5.17;;;3.10;96.30;;;;;;4976759;28;20503;-79
2021/11/22 08:47:53;;;;;;;9.23;5.00;;;3.10;96.30;;;;;;4976785;28;20552;-78
2021/11/22 08:50:21;;;;;;;7.90;5.53;;;3.10;96.30;;;;;;4994144;28;20180;-79
2021/11/22 08:52:47;;;;;;;8.00;5.27;;;3.10;96.30;;;;;;4993450;28;20472;-79
2021/11/22 08:55:15;;;;;;;13.47;7.83;;;3.20;96.30;;;;;;4994188;28;20830;-78
2021/11/22 08:57:42;;;;;;;5.53;4.80;;;3.20;96.30;;;;;;4994075;28;20400;-80
2021/11/22 09:00:13;;;;;;;8.70;6.50;;;3.10;96.30;;;;;;4993978;28;20393;-79
2021/11/22 09:02:39;;;;;;;8.10;5.67;;;3.10;96.30;;;;;;4975763;28;20444;-81
2021/11/22 09:05:05;;;;;;;8.30;6.80;;;3.10;96.30;;;;;;4976061;28;20520;-79
2021/11/22 09:07:31;;;;;;;7.60;6.33;;;3.20;96.30;;;;;;4993965;28;20269;-79
2021/11/22 09:09:56;;;;;;;8.80;6.67;;;3.20;96.30;;;;;;4976249;28;20507;-80
2021/11/22 09:12:22;;;;;;;8.10;4.63;;;3.20;96.30;;;;;;4975611;28;20193;-79
2021/11/22 09:14:49;;;;;;;13.83;5.87;;;3.30;96.30;;;;;;4993296;28;20169;-80
2021/11/22 09:17:17;;;;;;;7.50;6.27;;;3.30;96.30;;;;;;4993701;28;20201;-79
2021/11/22 09:19:43;;;;;;;8.63;6.37;;;3.30;96.30;;;;;;4993612;28;20435;-78
2021/11/22 09:22:11;;;;;;;7.27;6.57;;;3.30;96.30;;;;;;4992930;28;20472;-79
2021/11/22 09:24:41;;;;;;;6.73;6.03;;;3.30;96.30;;;;;;4976115;28;20932;-80
2021/11/22 09:27:06;;;;;;;11.40;7.00;;;3.20;96.30;;;;;;4976056;28;20417;-79
2021/11/22 09:29:32;;;;;;;8.67;6.03;;;3.20;96.30;;;;;;4975892;28;20415;-79
2021/11/22 09:31:58;;;;;;;9.17;6.50;;;3.20;96.30;;;;;;4975390;28;20190;-79
2021/11/22 09:34:24;;;;;;;8.93;5.07;;;3.30;96.30;;;;;;4975784;28;20467;-80
2021/11/22 09:36:49;;;;;;;7.60;6.47;;;3.20;96.30;;;;;;4993234;28;20176;-80
2021/11/22 09:39:17;;;;;;;10.73;6.47;;;3.20;96.30;;;;;;4993263;28;20177;-79
2021/11/22 09:41:46;;;;;;;11.97;8.10;;;3.20;96.30;;;;;;4974885;28;20639;-79
2021/11/22 09:44:11;;;;;;;8.63;5.30;;;3.30;96.30;;;;;;4993124;28;20440;-80
2021/11/22 09:46:37;;;;;;;6.17;5.57;;;3.30;96.30;;;;;;4975714;28;20874;-79
2021/11/22 09:49:03;;;;;;;8.70;6.40;;;3.30;96.30;;;;;;4975661;28;20268;-79
2021/11/22 09:51:29;;;;;;;7.83;6.00;;;3.20;96.30;;;;;;4992435;28;20193;-79
2021/11/22 09:53:55;;;;;;;7.10;5.87;;;3.20;96.30;;;;;;4975472;28;21008;-79
2021/11/22 09:56:20;;;;;;;8.47;6.23;;;3.20;96.30;;;;;;4992955;28;20408;-79
2021/11/22 09:58:46;;;;;;;7.83;5.73;;;3.20;96.30;;;;;;4992919;28;20297;-80
2021/11/22 10:01:15;;;;;;;7.23;6.30;;;3.30;96.30;;;;;;4992316;28;20185;-79
2021/11/22 10:03:41;;;;;;;12.10;6.37;;;3.30;96.30;;;;;;4975483;28;20181;-79
2021/11/22 10:06:07;;;;;;;8.57;5.70;;;3.40;96.30;;;;;;4992892;28;20413;-79
2021/11/22 10:08:41;;;;;;;6.63;5.70;;;3.40;96.30;;;;;;4975388;28;20994;-79
2021/11/22 10:11:08;;;;;;;7.83;5.50;;;3.40;96.30;;;;;;4974948;28;20290;-78
2021/11/22 10:13:42;;;;;;;6.67;5.30;;;3.40;96.30;;;;;;4975261;28;20536;-80
2021/11/22 10:16:07;;;;;;;6.50;5.50;;;3.40;96.30;;;;;;4992539;28;20416;-80
2021/11/22 10:18:38;;;;;;;9.00;5.17;;;3.40;96.30;;;;;;4975287;28;20792;-79
2021/11/22 10:21:10;;;;;;;7.83;5.57;;;3.30;96.30;;;;;;4974722;28;20197;-79
2021/11/22 10:23:38;;;;;;;8.20;5.23;;;3.30;96.30;;;;;;4992630;28;20416;-79
2021/11/22 10:26:05;;;;;;;8.33;5.20;;;3.20;96.30;;;;;;4975203;28;20453;-79
2021/11/22 10:28:36;;;;;;;8.97;5.20;;;3.30;96.30;;;;;;4978681;28;20421;-78
2021/11/22 10:31:06;;;;;;;8.40;5.03;;;3.30;96.30;;;;;;4978541;28;20559;-78
2021/11/22 10:33:35;;;;;;;6.57;5.63;;;3.40;96.30;;;;;;4979066;28;21046;-79
2021/11/22 10:36:04;;;;;;;5.43;4.67;;;3.40;96.30;;;;;;4979187;28;20417;-78
2021/11/22 10:38:32;;;;;;;6.57;5.33;;;3.50;96.30;;;;;;4979100;28;20551;-79
2021/11/22 10:41:07;;;;;;;10.47;5.70;;;3.60;96.30;;;;;;4995992;28;20523;-78
2021/11/22 10:43:39;;;;;;;6.50;5.30;;;3.70;96.30;;;;;;4996589;28;20428;-78
2021/11/22 10:46:08;;;;;;;6.23;4.60;;;3.80;96.30;;;;;;4978916;28;21142;-79
2021/11/22 10:48:34;;;;;;;5.70;4.43;;;3.90;96.30;;;;;;4978986;28;20515;-80
2021/11/22 10:51:04;;;;;;;6.93;5.00;;;3.80;96.30;;;;;;4978275;28;20559;-79
2021/11/22 10:53:39;;;;;;;7.67;5.17;;;3.90;96.30;;;;;;4996142;28;20201;-80
2021/11/22 10:56:09;;;;;;;4.73;4.03;;;3.90;96.30;;;;;;4996291;28;20388;-79
2021/11/22 10:58:41;;;;;;;6.70;4.40;;;3.90;96.30;;;;;;4978437;28;20409;-79
2021/11/22 11:01:17;;;;;;;5.43;3.90;;;3.90;96.30;;;;;;4995457;28;20439;-80
2021/11/22 11:03:58;;;;;;;6.50;4.60;;;4.10;96.30;;;;;;4996102;28;20475;-79
2021/11/22 11:06:57;;;;;;;6.10;3.40;;;4.20;96.30;;;;;;4995939;28;20440;-80
2021/11/22 11:09:36;;;;;;;4.43;3.40;;;4.10;96.30;;;;;;4978598;28;20413;-80
2021/11/22 11:12:16;;;;;;;4.30;2.70;;;3.90;96.30;;;;;;4995394;28;20436;-79
2021/11/22 11:14:45;;;;;;;3.70;2.53;;;3.70;96.30;;;;;;4995941;28;20495;-80
2021/11/22 11:17:18;;;;;;;4.13;3.57;;;3.60;96.30;;;;;;4996760;28;20401;-80
2021/11/22 11:19:46;;;;;;;4.53;3.70;;;3.50;96.30;;;;;;4997035;28;20385;-81
2021/11/22 11:22:12;;;;;;;5.37;3.37;;;3.60;96.30;;;;;;4978173;28;20512;-81
2021/11/22 11:24:38;;;;;;;3.63;3.27;;;3.70;96.30;;;;;;4978945;28;20431;-81
2021/11/22 11:27:04;;;;;;;5.83;3.87;;;3.70;96.30;;;;;;4996155;28;20489;-81
2021/11/22 11:29:32;;;;;;;4.97;2.93;;;3.70;96.30;;;;;;4995746;28;20173;-80
2021/11/22 11:31:57;;;;;;;4.37;2.77;;;3.70;96.30;;;;;;4997697;28;20435;-80
2021/11/22 11:34:29;;;;;;;4.00;2.87;;;3.70;96.30;;;;;;4998016;28;20514;-81
2021/11/22 11:37:24;;;;;;;3.50;3.20;;;3.80;96.30;;;;;;4997927;28;20180;-81
2021/11/22 11:40:21;;;;;;;4.20;3.80;;;3.90;96.30;;;;;;4998136;28;20447;-80
2021/11/22 11:42:58;;;;;;;4.00;2.67;;;4.30;96.30;;;;;;4997598;28;20490;-80
2021/11/22 11:45:36;;;;;;;4.20;3.27;;;4.50;96.30;;;;;;4998459;28;20454;-80
2021/11/22 11:48:11;;;;;;;3.70;2.73;;;4.40;96.30;;;;;;5016210;28;20392;-81
2021/11/22 11:50:43;;;;;;;3.50;2.53;;;4.00;96.30;;;;;;4997874;28;20435;-80
2021/11/22 11:53:12;;;;;;;2.83;2.47;;;3.60;96.30;;;;;;5014787;28;20466;-80
2021/11/22 11:55:39;;;;;;;2.90;2.70;;;3.30;96.30;;;;;;5015265;28;20899;-80
2021/11/22 11:58:27;;;;;;;2.83;2.43;;;3.30;96.30;;;;;;5015401;28;20408;-80
2021/11/22 12:00:55;;;;;;;3.83;3.20;;;3.40;96.30;;;;;;4997405;28;20478;-80
2021/11/22 12:03:22;;;;;;;4.13;3.60;;;3.50;96.30;;;;;;5014871;28;20419;-81
2021/11/22 12:05:50;;;;;;;3.33;2.50;;;3.50;96.30;;;;;;4997537;28;20412;-80
2021/11/22 12:08:20;;;;;;;3.63;3.27;;;3.60;96.30;;;;;;4997614;28;20423;-81
2021/11/22 12:10:47;;;;;;;5.80;2.20;;;3.90;96.30;;;;;;5014762;28;20442;-81
2021/11/22 12:13:14;;;;;;;3.20;2.17;;;3.90;96.30;;;;;;4996963;28;20451;-80
2021/11/22 12:15:50;;;;;;;3.17;2.37;;;3.60;96.30;;;;;;4997535;28;20423;-81
2021/11/22 12:18:30;;;;;;;4.07;2.03;;;3.50;96.30;;;;;;5015766;28;20400;-81
2021/11/22 12:21:04;;;;;;;1.90;1.50;;;3.20;96.30;;;;;;4997343;28;20825;-81
2021/11/22 12:23:40;;;;;;;1.70;1.40;;;3.20;96.30;;;;;;4997100;28;20965;-81
2021/11/22 12:26:06;;;;;;;3.13;1.67;;;3.10;96.30;;;;;;4997503;28;20439;-81
2021/11/22 12:28:32;;;;;;;3.13;2.50;;;3.10;96.30;;;;;;4988294;28;20427;-81
2021/11/22 12:31:01;;;;;;;2.13;1.93;;;3.20;96.30;;;;;;4977324;28;20464;-81
2021/11/22 12:33:26;;;;;;;4.30;2.67;;;3.10;96.30;;;;;;4995337;28;20280;-81
2021/11/22 12:36:01;;;;;;;4.10;2.63;;;3.10;96.30;;;;;;4995788;28;20436;-80
2021/11/22 12:38:31;;;;;;;2.77;2.40;;;3.00;96.30;;;;;;4996826;28;20153;-79
2021/11/22 12:41:01;;;;;;;4.03;2.53;;;3.00;96.30;;;;;;4981431;28;20483;-80
2021/11/22 12:43:36;;;;;;;3.40;3.00;;;3.10;96.30;;;;;;5001395;28;20417;-81
2021/11/22 12:46:01;;;;;;;2.60;2.40;;;3.30;96.30;;;;;;4978037;28;20431;-80
2021/11/22 12:48:32;;;;;;;3.13;2.80;;;3.40;96.30;;;;;;4978037;28;20455;-81
2021/11/22 12:51:01;;;;;;;3.20;2.90;;;3.50;96.30;;;;;;4976830;28;20224;-80
2021/11/22 12:53:26;;;;;;;3.20;2.80;;;3.50;96.30;;;;;;4977760;28;20452;-80
2021/11/22 12:55:55;;;;;;;3.70;2.33;;;3.50;96.30;;;;;;4995508;28;20432;-81
2021/11/22 12:58:25;;;;;;;3.90;2.57;;;3.40;96.30;;;;;;4977672;28;20197;-80
2021/11/22 13:00:53;;;;;;;1.90;1.80;;;3.30;96.30;;;;;;4995318;28;20511;-81
2021/11/22 13:03:21;;;;;;;2.10;1.90;;;3.30;96.30;;;;;;4977434;28;20413;-81
2021/11/22 13:05:52;;;;;;;2.47;2.10;;;3.30;96.30;;;;;;4977595;28;20443;-81
2021/11/22 13:08:18;;;;;;;2.20;1.70;;;3.40;96.30;;;;;;4995212;28;20484;-79
2021/11/22 13:10:46;;;;;;;2.73;2.40;;;3.50;96.30;;;;;;4977570;28;20460;-81
2021/11/22 13:13:25;;;;;;;1.40;1.30;;;3.50;96.30;;;;;;4994650;28;20193;-81
2021/11/22 13:15:59;;;;;;;2.43;1.90;;;3.40;96.30;;;;;;4994918;28;20551;-81
2021/11/22 13:18:34;;;;;;;3.30;1.60;;;3.30;96.30;;;;;;4995311;28;20400;-81
2021/11/22 13:21:02;;;;;;;5.23;1.53;;;3.20;96.30;;;;;;4994472;28;20431;-81
2021/11/22 13:23:34;;;;;;;1.77;1.27;;;3.20;96.30;;;;;;4978043;28;20475;-81
2021/11/22 13:26:01;;;;;;;1.10;0.97;;;3.10;96.30;;;;;;4977659;28;20504;-81
2021/11/22 13:28:35;;;;;;;1.43;1.33;;;3.20;96.30;;;;;;4986192;28;20419;-80
2021/11/22 13:31:09;;;;;;;1.47;1.37;;;3.20;96.30;;;;;;4996214;28;20490;-81
2021/11/22 13:33:36;;;;;;;1.27;1.17;;;3.20;96.30;;;;;;5014637;28;20550;-79
2021/11/22 13:36:01;;;;;;;1.60;1.33;;;3.30;96.30;;;;;;4997370;28;20412;-81
2021/11/22 13:38:27;;;;;;;1.60;1.47;;;3.30;96.30;;;;;;4997214;28;20416;-80
2021/11/22 13:41:08;;;;;;;2.30;1.40;;;3.30;96.30;;;;;;4997126;28;20191;-81
2021/11/22 13:43:34;;;;;;;1.40;1.30;;;3.30;96.30;;;;;;4996569;28;20180;-81
2021/11/22 13:46:02;;;;;;;4.93;1.30;;;3.30;96.30;;;;;;4995488;28;20428;-80
2021/11/22 13:48:50;;;;;;;3.20;1.40;;;3.30;96.30;;;;;;4995698;28;20184;-80
2021/11/22 13:51:22;;;;;;;1.47;1.10;;;3.20;96.30;;;;;;4994718;28;20538;-80
2021/11/22 13:53:48;;;;;;;1.50;1.20;;;3.20;96.30;;;;;;5012933;28;20451;-80
2021/11/22 13:56:27;;;;;;;1.13;1.03;;;3.20;96.30;;;;;;4995231;28;20412;-80
2021/11/22 13:58:53;;;;;;;1.20;1.10;;;3.20;96.30;;;;;;5013025;28;20806;-80
2021/11/22 14:01:19;;;;;;;1.63;1.10;;;3.30;96.30;;;;;;5012322;28;20458;-80
2021/11/22 14:03:46;;;;;;;2.50;1.10;;;3.10;96.30;;;;;;5012763;28;20415;-80
2021/11/22 14:06:12;;;;;;;2.23;1.30;;;3.10;96.30;;;;;;5012845;28;20411;-80
2021/11/22 14:08:39;;;;;;;5.20;1.30;;;2.90;96.30;;;;;;4995371;28;20850;-80
2021/11/22 14:11:22;;;;;;;1.30;1.20;;;2.80;96.30;;;;;;4994557;28;20493;-80
2021/11/22 14:13:47;;;;;;;3.07;1.53;;;2.80;96.30;;;;;;4995141;28;20459;-80
2021/11/22 14:16:19;;;;;;;6.73;2.57;;;2.70;96.30;;;;;;5013152;28;20419;-79
2021/11/22 14:18:46;;;;;;;1.50;1.40;;;2.70;96.30;;;;;;4995165;28;20264;-79
2021/11/22 14:21:12;;;;;;;1.30;1.20;;;2.80;96.30;;;;;;4994534;28;20468;-80
2021/11/22 14:23:38;;;;;;;1.37;1.10;;;2.80;96.30;;;;;;4995332;28;20420;-80
2021/11/22 14:26:07;;;;;;;2.17;1.23;;;2.80;96.30;;;;;;4995000;28;20422;-80
2021/11/22 14:28:43;;;;;;;1.60;1.30;;;2.80;96.30;;;;;;4994947;28;20208;-80
2021/11/22 14:31:09;;;;;;;1.57;1.07;;;2.70;96.30;;;;;;5011866;28;20453;-80
2021/11/22 14:33:37;;;;;;;3.10;1.10;;;2.70;96.30;;;;;;5012964;28;20455;-79
2021/11/22 14:36:08;;;;;;;1.50;0.80;;;2.60;96.30;;;;;;5012501;28;20417;-80
2021/11/22 14:38:37;;;;;;;1.23;1.03;;;2.50;96.30;;;;;;4994945;28;20424;-79
2021/11/22 14:41:08;;;;;;;1.50;1.10;;;2.40;96.30;;;;;;5011895;28;20923;-80
2021/11/22 14:43:46;;;;;;;1.83;1.00;;;2.10;96.30;;;;;;4994820;28;21031;-80
2021/11/22 14:46:19;;;;;;;2.03;0.83;;;2.00;96.30;;;;;;4994819;28;20502;-79
2021/11/22 14:48:46;;;;;;;1.47;1.10;;;1.80;96.30;;;;;;5012353;28;21143;-80
2021/11/22 14:51:14;;;;;;;4.20;1.07;;;1.80;96.30;;;;;;4994115;28;20444;-79
2021/11/22 14:53:55;;;;;;;3.10;1.50;;;1.90;96.30;;;;;;5012409;28;20498;-80
2021/11/22 14:56:27;;;;;;;1.33;1.23;;;2.00;96.30;;;;;;5012380;28;20872;-79
2021/11/22 14:59:00;;;;;;;2.73;1.10;;;1.90;96.30;;;;;;4994628;28;20412;-79
2021/11/22 15:01:38;;;;;;;5.63;1.27;;;1.90;96.30;;;;;;4994175;28;20447;-79
2021/11/22 15:04:27;;;;;;;2.60;1.50;;;1.80;96.30;;;;;;4994794;28;20514;-80
2021/11/22 15:06:56;;;;;;;2.07;1.10;;;1.80;96.30;;;;;;4994589;28;20416;-80
2021/11/22 15:09:26;;;;;;;1.67;1.30;;;1.70;96.30;;;;;;4995311;28;20838;-79
2021/11/22 15:11:56;;;;;;;2.83;1.20;;;1.70;96.30;;;;;;5011179;28;21110;-79
2021/11/22 15:14:24;;;;;;;2.93;1.40;;;1.70;96.30;;;;;;4997627;28;20455;-79
2021/11/22 15:16:55;;;;;;;2.17;1.00;;;1.80;96.30;;;;;;4998332;28;20795;-79
2021/11/22 15:19:42;;;;;;;2.27;1.33;;;1.80;96.30;;;;;;4998274;28;20403;-79
2021/11/22 15:22:10;;;;;;;3.30;1.10;;;1.80;96.30;;;;;;5015321;28;20437;-79
2021/11/22 15:24:36;;;;;;;1.20;1.10;;;1.80;96.30;;;;;;4997993;28;20415;-79
2021/11/22 15:27:03;;;;;;;1.23;1.10;;;1.90;96.30;;;;;;5015644;28;20408;-79
2021/11/22 15:29:30;;;;;;;5.13;1.00;;;1.90;96.30;;;;;;5015656;28;20411;-79
2021/11/22 15:31:59;;;;;;;2.50;1.60;;;1.90;96.30;;;;;;5014787;28;20927;-79
2021/11/22 15:34:28;;;;;;;2.80;1.40;;;1.90;96.30;;;;;;4998948;28;20550;-79
2021/11/22 15:36:54;;;;;;;3.30;1.53;;;1.90;96.30;;;;;;5017865;28;20830;-78
2021/11/22 15:39:23;;;;;;;3.57;2.50;;;1.90;96.30;;;;;;5000788;28;20407;-79
2021/11/22 15:41:50;;;;;;;1.30;1.10;;;1.90;96.30;;;;;;5019363;28;20420;-79
2021/11/22 15:44:15;;;;;;;2.93;1.73;;;1.80;96.30;;;;;;5002568;28;20423;-79
2021/11/22 15:46:41;;;;;;;1.50;1.27;;;1.80;96.30;;;;;;5002107;28;20469;-79
2021/11/22 15:49:07;;;;;;;1.40;1.30;;;1.80;96.30;;;;;;5002840;28;20192;-79
2021/11/22 15:51:32;;;;;;;3.93;1.70;;;1.80;96.30;;;;;;5002158;28;20193;-79
2021/11/22 15:53:58;;;;;;;2.50;1.17;;;1.70;96.30;;;;;;4985102;28;20198;-78
2021/11/22 15:56:23;;;;;;;1.53;0.90;;;1.60;96.30;;;;;;4963719;28;20233;-79
2021/11/22 15:58:49;;;;;;;1.60;1.10;;;1.50;96.30;;;;;;4963285;28;20638;-79
2021/11/22 16:01:16;;;;;;;1.93;1.20;;;1.50;96.30;;;;;;4980544;28;20195;-79
2021/11/22 16:03:42;;;;;;;2.17;0.90;;;1.50;96.30;;;;;;4981606;28;20643;-79
2021/11/22 16:06:08;;;;;;;1.53;1.00;;;1.50;96.30;;;;;;4962990;28;20430;-80
2021/11/22 16:08:33;;;;;;;2.97;1.00;;;1.40;96.30;;;;;;4961431;28;20646;-80
2021/11/22 16:11:00;;;;;;;1.10;1.00;;;1.40;96.30;;;;;;4975438;28;20557;-80
2021/11/22 16:13:26;;;;;;;1.47;0.80;;;1.40;96.30;;;;;;4975846;28;20194;-80
2021/11/22 16:15:51;;;;;;;1.07;0.90;;;1.40;96.30;;;;;;4975919;28;20413;-80
2021/11/22 16:18:20;;;;;;;1.47;1.07;;;1.50;96.30;;;;;;4976128;28;21263;-80
2021/11/22 16:20:49;;;;;;;2.60;0.90;;;1.50;96.30;;;;;;4958574;28;20198;-80
2021/11/22 16:23:15;;;;;;;2.17;0.90;;;1.50;96.30;;;;;;4957805;28;20564;-80
2021/11/22 16:25:41;;;;;;;1.00;0.83;;;1.50;96.30;;;;;;4957356;28;20987;-80
2021/11/22 16:28:06;;;;;;;3.90;1.10;;;1.60;96.30;;;;;;4975519;28;20253;-80
2021/11/22 16:30:34;;;;;;;3.03;0.90;;;1.60;96.30;;;;;;4957974;28;20277;-80
2021/11/22 16:33:00;;;;;;;9.53;1.40;;;1.70;96.30;;;;;;4975423;28;20190;-80
2021/11/22 16:35:25;;;;;;;1.10;0.90;;;1.80;96.30;;;;;;4975488;28;20480;-80
2021/11/22 16:37:51;;;;;;;2.23;1.13;;;1.80;96.30;;;;;;4958343;28;20205;-79
2021/11/22 16:40:16;;;;;;;1.60;1.33;;;1.80;96.30;;;;;;4958125;28;20607;-80
2021/11/22 16:42:42;;;;;;;1.60;1.07;;;1.80;96.30;;;;;;4975015;28;20190;-80
2021/11/22 16:45:07;;;;;;;1.77;1.10;;;1.90;96.30;;;;;;4957986;28;20273;-79
2021/11/22 16:47:33;;;;;;;2.53;1.17;;;1.90;96.30;;;;;;4957462;28;20229;-79
2021/11/22 16:49:59;;;;;;;2.03;1.30;;;1.90;96.30;;;;;;4957580;28;20179;-78
2021/11/22 16:52:24;;;;;;;1.90;1.13;;;1.90;96.30;;;;;;4974129;28;20717;-79
2021/11/22 16:54:51;;;;;;;3.43;1.20;;;1.80;96.30;;;;;;4974662;28;20174;-78
2021/11/22 16:57:17;;;;;;;2.40;1.33;;;1.80;96.30;;;;;;4974708;28;20162;-78
2021/11/22 16:59:42;;;;;;;2.40;1.70;;;1.80;96.30;;;;;;4957167;28;21202;-78
2021/11/22 17:02:08;;;;;;;2.33;1.87;;;1.80;96.30;;;;;;4962618;28;20200;-79
2021/11/22 17:04:34;;;;;;;3.97;1.60;;;1.70;96.30;;;;;;4996528;28;20208;-79
2021/11/22 17:07:02;;;;;;;3.10;1.70;;;1.80;96.30;;;;;;5013800;28;20180;-79
2021/11/22 17:09:28;;;;;;;2.57;1.70;;;1.80;96.30;;;;;;5013361;28;20419;-79